9D7

Cando Municipal Airport

Cando, North Dakota, USA
METAR K9D7 240455Z AUTO 15009KT 10SM CLR M02/M02 A3026 RMK AO2
Observed Flight Rules
Oct-24 @ 04:55 UTC (7 minutes ago) Visual Flight Rules
Wind Visibility Clouds
150° at 9 knots 10 miles
  • Clear skies
Temperatures Readings
Current -2°C / 28°F
Dewpoint -2°C / 28°F
Humidity 100%
Altimeter 30.26" Hg
Pressure 1025 hPa
Elevation 452
METAR K9D7 240455Z AUTO 15009KT 10SM CLR M02/M02 A3026 RMK AO2
Observed Flight Rules
Oct-24 @ 04:55 UTC
(7 minutes ago)
VFR
Wind Visibility
150° at 9 knots 10 miles
Clouds
  • Clear skies
Temperature Dewpoint
-2°C / 28°F -2°C / 28°F
Humidity Altimeter Pressure
100% 30.26" Hg 1025 hPa